createdAt,value
2019-02-19T00:00:14.449Z,7.48
2019-02-19T00:00:48.167Z,7.28
2019-02-19T00:01:20.572Z,7.13
2019-02-19T00:01:51.820Z,6.97
2019-02-19T00:02:23.168Z,6.82
2019-02-19T00:02:54.544Z,6.66
2019-02-19T00:03:25.894Z,6.55
2019-02-19T00:03:57.256Z,6.52
2019-02-19T00:04:28.586Z,6.62
2019-02-19T00:04:59.786Z,6.79
2019-02-19T00:05:31.115Z,7.04
2019-02-19T00:06:02.405Z,7.34
2019-02-19T00:06:33.755Z,7.62
2019-02-19T00:07:05.085Z,7.88
2019-02-19T00:07:36.474Z,8.18
2019-02-19T00:08:07.685Z,8.44
2019-02-19T00:08:39.002Z,8.68
2019-02-19T00:09:10.364Z,8.90
2019-02-19T00:09:41.669Z,9.11
2019-02-19T00:10:12.901Z,9.33
2019-02-19T00:10:44.442Z,9.48
2019-02-19T00:11:15.709Z,9.55
2019-02-19T00:11:47.070Z,9.48
2019-02-19T00:12:18.404Z,9.40
2019-02-19T00:12:49.808Z,9.23
2019-02-19T00:13:21.063Z,9.02
2019-02-19T00:13:52.419Z,8.83
2019-02-19T00:14:23.748Z,8.62
2019-02-19T00:14:55.121Z,8.38
2019-02-19T00:15:26.330Z,8.18
2019-02-19T00:15:57.650Z,7.99
2019-02-19T00:16:28.926Z,7.82
2019-02-19T00:17:00.301Z,7.62
2019-02-19T00:17:31.758Z,7.42
2019-02-19T00:18:03.022Z,7.24
2019-02-19T00:18:34.388Z,7.04
2019-02-19T00:19:05.696Z,6.87
2019-02-19T00:19:36.990Z,6.69
2019-02-19T00:20:08.261Z,6.53
2019-02-19T00:20:39.533Z,6.41
2019-02-19T00:21:10.845Z,6.38
2019-02-19T00:21:42.213Z,6.49
2019-02-19T00:22:14.605Z,6.68
2019-02-19T00:22:45.933Z,6.90
2019-02-19T00:23:17.231Z,7.20
2019-02-19T00:23:48.617Z,7.49
2019-02-19T00:24:20.045Z,7.78
2019-02-19T00:24:51.367Z,8.04
2019-02-19T00:25:22.635Z,8.32
2019-02-19T00:25:53.893Z,8.58
2019-02-19T00:26:25.188Z,8.79
2019-02-19T00:26:56.535Z,9.03
2019-02-19T00:27:27.779Z,9.23
2019-02-19T00:27:59.087Z,9.40
2019-02-19T00:28:30.449Z,9.47
2019-02-19T00:29:01.784Z,9.41
2019-02-19T00:29:33.128Z,9.31
2019-02-19T00:30:05.159Z,9.16
2019-02-19T00:30:37.382Z,8.96
2019-02-19T00:31:08.634Z,8.76
2019-02-19T00:31:39.894Z,8.56
2019-02-19T00:32:11.132Z,8.37
2019-02-19T00:32:42.412Z,8.14
2019-02-19T00:33:13.792Z,7.94
2019-02-19T00:33:45.010Z,7.76
2019-02-19T00:34:16.289Z,7.59
2019-02-19T00:34:47.515Z,7.41
2019-02-19T00:35:18.744Z,7.25
2019-02-19T00:35:50.112Z,7.08
2019-02-19T00:36:21.337Z,6.93
2019-02-19T00:36:52.620Z,6.76
2019-02-19T00:37:23.905Z,6.62
2019-02-19T00:37:55.205Z,6.46
2019-02-19T00:38:26.419Z,6.35
2019-02-19T00:38:57.762Z,6.36
2019-02-19T00:39:29.070Z,6.48
2019-02-19T00:40:00.576Z,6.69
2019-02-19T00:40:31.815Z,6.93
2019-02-19T00:41:03.235Z,7.21
2019-02-19T00:41:34.472Z,7.54
2019-02-19T00:42:05.751Z,7.81
2019-02-19T00:42:37.167Z,8.07
2019-02-19T00:43:08.485Z,8.35
2019-02-19T00:43:39.761Z,8.59
2019-02-19T00:44:11.434Z,8.82
2019-02-19T00:44:42.818Z,9.03
2019-02-19T00:45:16.660Z,9.20
2019-02-19T00:45:47.591Z,9.26
2019-02-19T00:46:18.986Z,9.19
2019-02-19T00:46:50.218Z,9.10
2019-02-19T00:47:21.548Z,8.93
2019-02-19T00:47:52.804Z,8.75
2019-02-19T00:48:24.102Z,8.56
2019-02-19T00:48:55.436Z,8.34
2019-02-19T00:49:26.700Z,8.18
2019-02-19T00:49:58.039Z,7.94
2019-02-19T00:50:29.310Z,7.75
2019-02-19T00:51:00.692Z,7.59
2019-02-19T00:51:31.979Z,7.41
2019-02-19T00:52:03.238Z,7.25
2019-02-19T00:52:34.524Z,7.04
2019-02-19T00:53:05.771Z,6.92
2019-02-19T00:53:37.075Z,6.75
2019-02-19T00:54:08.325Z,6.60
2019-02-19T00:54:39.588Z,6.41
2019-02-19T00:55:10.868Z,6.28
2019-02-19T00:55:42.138Z,6.16
2019-02-19T00:56:13.644Z,6.00
2019-02-19T00:56:45.005Z,5.92
2019-02-19T00:57:16.345Z,5.92
2019-02-19T00:57:47.615Z,6.03
2019-02-19T00:58:19.001Z,6.24
2019-02-19T00:58:50.307Z,6.53
2019-02-19T00:59:21.562Z,6.83
2019-02-19T00:59:52.794Z,7.11
2019-02-19T01:00:24.054Z,7.39
2019-02-19T01:00:55.517Z,7.67
2019-02-19T01:01:26.840Z,7.94
2019-02-19T01:01:58.127Z,8.21
2019-02-19T01:02:29.416Z,8.47
2019-02-19T01:03:00.706Z,8.69
2019-02-19T01:03:32.003Z,8.86
2019-02-19T01:04:03.238Z,8.92
2019-02-19T01:04:34.542Z,8.90
2019-02-19T01:05:06.028Z,8.80
2019-02-19T01:05:37.330Z,8.65
2019-02-19T01:06:08.614Z,8.48
2019-02-19T01:06:39.951Z,8.30
2019-02-19T01:07:11.325Z,8.09
2019-02-19T01:07:42.662Z,7.88
2019-02-19T01:08:13.937Z,7.67
2019-02-19T01:08:45.203Z,7.46
2019-02-19T01:09:16.667Z,7.31
2019-02-19T01:09:48.138Z,7.10
2019-02-19T01:10:19.561Z,6.93
2019-02-19T01:10:50.933Z,6.76
2019-02-19T01:11:22.267Z,6.59
2019-02-19T01:11:53.629Z,6.45
2019-02-19T01:12:25.030Z,6.29
2019-02-19T01:12:57.435Z,6.11
2019-02-19T01:13:29.225Z,5.96
2019-02-19T01:14:00.508Z,5.83
2019-02-19T01:14:31.915Z,5.70
2019-02-19T01:15:07.321Z,5.70
2019-02-19T01:15:38.691Z,5.85
2019-02-19T01:16:10.707Z,6.04
2019-02-19T01:16:42.123Z,6.29
2019-02-19T01:17:13.380Z,6.56
2019-02-19T01:17:44.838Z,6.89
2019-02-19T01:18:16.160Z,7.18
2019-02-19T01:18:47.538Z,7.42
2019-02-19T01:19:18.934Z,7.69
2019-02-19T01:19:50.391Z,7.93
2019-02-19T01:20:21.855Z,8.14
2019-02-19T01:20:53.334Z,8.38
2019-02-19T01:21:24.784Z,8.55
2019-02-19T01:21:56.188Z,8.65
2019-02-19T01:22:27.627Z,8.61
2019-02-19T01:22:58.979Z,8.52
2019-02-19T01:23:30.349Z,8.34
2019-02-19T01:24:01.659Z,8.14
2019-02-19T01:24:32.970Z,7.96
2019-02-19T01:25:06.753Z,7.73
2019-02-19T01:25:38.149Z,7.52
2019-02-19T01:26:09.445Z,7.30
2019-02-19T01:26:40.774Z,7.13
2019-02-19T01:27:12.080Z,6.96
2019-02-19T01:27:43.665Z,6.75
2019-02-19T01:28:15.239Z,6.57
2019-02-19T01:28:46.605Z,6.41
2019-02-19T01:29:17.858Z,6.22
2019-02-19T01:29:49.266Z,6.10
2019-02-19T01:30:20.519Z,5.94
2019-02-19T01:30:51.819Z,5.83
2019-02-19T01:31:23.165Z,5.65
2019-02-19T01:31:54.428Z,5.56
2019-02-19T01:32:25.709Z,5.55
2019-02-19T01:32:57.122Z,5.67
2019-02-19T01:33:28.429Z,5.87
2019-02-19T01:33:59.738Z,6.13
2019-02-19T01:34:30.964Z,6.39
2019-02-19T01:35:02.830Z,6.69
2019-02-19T01:35:34.198Z,6.99
2019-02-19T01:36:05.412Z,7.27
2019-02-19T01:36:36.706Z,7.54
2019-02-19T01:37:08.009Z,7.79
2019-02-19T01:37:39.335Z,8.03
2019-02-19T01:38:10.615Z,8.25
2019-02-19T01:38:41.907Z,8.45
2019-02-19T01:39:13.153Z,8.55
2019-02-19T01:39:44.475Z,8.52
2019-02-19T01:40:15.787Z,8.47
2019-02-19T01:40:47.179Z,8.28
2019-02-19T01:41:18.513Z,8.09
2019-02-19T01:41:49.791Z,7.90
2019-02-19T01:42:21.040Z,7.70
2019-02-19T01:42:52.485Z,7.51
2019-02-19T01:43:23.807Z,7.30
2019-02-19T01:43:55.199Z,7.11
2019-02-19T01:44:26.439Z,6.90
2019-02-19T01:44:57.769Z,6.72
2019-02-19T01:45:34.073Z,6.53
2019-02-19T01:46:02.252Z,6.35
2019-02-19T01:46:33.500Z,6.20
2019-02-19T01:47:04.840Z,6.01
2019-02-19T01:47:36.231Z,5.87
2019-02-19T01:48:07.612Z,5.73
2019-02-19T01:48:39.064Z,5.61
2019-02-19T01:49:10.422Z,5.50
2019-02-19T01:49:41.775Z,5.49
2019-02-19T01:50:13.074Z,5.66
2019-02-19T01:50:44.455Z,5.85
2019-02-19T01:51:15.802Z,6.10
2019-02-19T01:51:47.171Z,6.39
2019-02-19T01:52:18.457Z,6.69
2019-02-19T01:52:49.804Z,6.99
2019-02-19T01:53:21.107Z,7.27
2019-02-19T01:53:52.370Z,7.52
2019-02-19T01:54:23.641Z,7.78
2019-02-19T01:54:54.979Z,7.99
2019-02-19T01:55:26.361Z,8.24
2019-02-19T01:55:57.726Z,8.42
2019-02-19T01:56:29.068Z,8.48
2019-02-19T01:57:00.375Z,8.44
2019-02-19T01:57:31.767Z,8.34
2019-02-19T01:58:03.062Z,8.18
2019-02-19T01:58:34.494Z,7.99
2019-02-19T01:59:05.966Z,7.79
2019-02-19T01:59:37.256Z,7.61
2019-02-19T02:00:09.561Z,7.37
2019-02-19T02:00:40.847Z,7.17
2019-02-19T02:01:12.285Z,6.97
2019-02-19T02:01:43.687Z,6.76
2019-02-19T02:02:16.021Z,6.60
2019-02-19T02:02:47.280Z,6.41
2019-02-19T02:03:18.622Z,6.25
2019-02-19T02:03:49.867Z,6.13
2019-02-19T02:04:21.130Z,5.94
2019-02-19T02:04:52.458Z,5.77
2019-02-19T02:05:23.811Z,5.66
2019-02-19T02:05:55.164Z,5.49
2019-02-19T02:06:26.478Z,5.38
2019-02-19T02:06:57.745Z,5.39
2019-02-19T02:07:30.043Z,5.55
2019-02-19T02:08:01.394Z,5.75
2019-02-19T02:08:32.892Z,6.01
2019-02-19T02:09:04.772Z,6.32
2019-02-19T02:09:36.171Z,6.62
2019-02-19T02:10:07.500Z,6.94
2019-02-19T02:10:38.893Z,7.18
2019-02-19T02:11:10.256Z,7.46
2019-02-19T02:11:41.588Z,7.70
2019-02-19T02:12:13.080Z,7.94
2019-02-19T02:12:44.405Z,8.18
2019-02-19T02:13:15.824Z,8.37
2019-02-19T02:13:47.051Z,8.44
2019-02-19T02:14:18.387Z,8.44
2019-02-19T02:14:49.704Z,8.35
2019-02-19T02:15:21.078Z,8.16
2019-02-19T02:15:52.338Z,7.99
2019-02-19T02:16:23.648Z,7.79
2019-02-19T02:18:30.363Z,6.96
2019-02-19T02:19:01.775Z,6.73
2019-02-19T02:19:33.037Z,6.59
2019-02-19T02:20:06.053Z,6.42
2019-02-19T02:20:38.439Z,6.22
2019-02-19T02:21:09.822Z,6.07
2019-02-19T02:21:41.164Z,5.92
2019-02-19T02:22:12.430Z,5.75
2019-02-19T02:22:43.692Z,5.59
2019-02-19T02:23:15.095Z,5.45
2019-02-19T02:23:46.349Z,5.31
2019-02-19T02:24:17.681Z,5.18
2019-02-19T02:24:48.888Z,5.11
2019-02-19T02:25:20.213Z,5.19
2019-02-19T02:25:51.451Z,5.38
2019-02-19T02:26:22.758Z,5.61
2019-02-19T02:26:54.127Z,5.87
2019-02-19T02:27:25.496Z,6.18
2019-02-19T02:27:56.742Z,6.49
2019-02-19T02:28:28.006Z,6.76
2019-02-19T02:28:59.257Z,7.06
2019-02-19T02:29:30.671Z,7.28
2019-02-19T02:30:03.328Z,7.54
2019-02-19T02:30:34.770Z,7.76
2019-02-19T02:31:06.054Z,7.99
2019-02-19T02:31:37.377Z,8.06
2019-02-19T02:32:08.704Z,8.10
2019-02-19T02:32:39.959Z,8.00
2019-02-19T02:33:11.176Z,7.86
2019-02-19T02:33:42.425Z,7.67
2019-02-19T02:34:14.755Z,7.48
2019-02-19T02:34:45.997Z,7.28
2019-02-19T02:35:17.244Z,7.04
2019-02-19T02:35:48.513Z,6.89
2019-02-19T02:36:19.886Z,6.69
2019-02-19T02:36:51.193Z,6.51
2019-02-19T02:37:22.585Z,6.34
2019-02-19T02:37:53.882Z,6.14
2019-02-19T02:38:25.136Z,5.96
2019-02-19T02:38:56.466Z,5.82
2019-02-19T02:39:27.839Z,5.65
2019-02-19T02:39:59.155Z,5.46
2019-02-19T02:40:30.514Z,5.31
2019-02-19T02:41:01.820Z,5.18
2019-02-19T02:41:33.177Z,5.10
2019-02-19T02:42:04.466Z,5.14
2019-02-19T02:42:35.829Z,5.31
2019-02-19T02:43:07.113Z,5.55
2019-02-19T02:43:38.464Z,5.82
2019-02-19T02:44:09.841Z,6.14
2019-02-19T02:44:41.322Z,6.39
2019-02-19T02:45:12.703Z,6.69
2019-02-19T02:45:53.005Z,6.97
2019-02-19T02:46:17.366Z,7.25
2019-02-19T02:46:48.626Z,7.49
2019-02-19T02:47:19.919Z,7.73
2019-02-19T02:47:51.291Z,7.93
2019-02-19T02:48:22.698Z,8.06
2019-02-19T02:48:53.993Z,8.07
2019-02-19T02:49:25.342Z,7.99
2019-02-19T02:49:56.693Z,7.85
2019-02-19T02:50:27.980Z,7.67
2019-02-19T02:50:59.207Z,7.48
2019-02-19T02:51:30.567Z,7.30
2019-02-19T02:52:01.919Z,7.08
2019-02-19T02:52:33.236Z,6.89
2019-02-19T02:53:04.545Z,6.71
2019-02-19T02:53:35.925Z,6.52
2019-02-19T02:54:07.228Z,6.36
2019-02-19T02:55:42.729Z,5.82
2019-02-19T02:56:14.502Z,5.69
2019-02-19T02:56:45.876Z,5.53
2019-02-19T02:57:17.215Z,5.38
2019-02-19T02:57:48.609Z,5.22
2019-02-19T02:58:19.994Z,5.12
2019-02-19T02:58:51.448Z,5.15
2019-02-19T02:59:22.772Z,5.28
2019-02-19T02:59:54.077Z,5.45
2019-02-19T03:00:25.494Z,5.56
2019-02-19T03:00:56.883Z,5.59
2019-02-19T03:01:28.171Z,5.56
2019-02-19T03:01:59.387Z,5.46
2019-02-19T03:02:30.750Z,5.37
2019-02-19T03:03:02.002Z,5.25
2019-02-19T03:03:33.270Z,5.15
2019-02-19T03:04:04.518Z,5.17
2019-02-19T03:04:35.858Z,5.29
2019-02-19T03:05:07.203Z,5.45
2019-02-19T03:05:40.613Z,5.53
2019-02-19T03:06:13.823Z,5.53
2019-02-19T03:07:03.640Z,5.49
2019-02-19T03:07:39.777Z,5.35
2019-02-19T03:08:11.366Z,5.18
2019-02-19T03:08:42.572Z,5.12
2019-02-19T03:09:13.903Z,5.15
2019-02-19T03:09:45.276Z,5.32
2019-02-19T03:10:16.596Z,5.46
2019-02-19T03:10:47.940Z,5.55
2019-02-19T03:11:19.239Z,5.59
2019-02-19T03:11:50.626Z,5.52
2019-02-19T03:12:22.019Z,5.46
2019-02-19T03:12:53.281Z,5.38
2019-02-19T03:13:24.536Z,5.22
2019-02-19T03:13:55.833Z,5.14
2019-02-19T03:14:27.128Z,5.17
2019-02-19T03:14:58.430Z,5.31
2019-02-19T03:15:30.844Z,5.46
2019-02-19T03:16:02.810Z,5.56
2019-02-19T03:16:34.210Z,5.59
2019-02-19T03:17:05.547Z,5.52
2019-02-19T03:17:36.877Z,5.43
2019-02-19T03:18:08.174Z,5.35
2019-02-19T03:18:39.531Z,5.22
2019-02-19T03:19:10.901Z,5.15
2019-02-19T03:19:42.269Z,5.19
2019-02-19T03:20:13.630Z,5.34
2019-02-19T03:20:44.930Z,5.48
2019-02-19T03:21:16.171Z,5.55
2019-02-19T03:21:47.472Z,5.53
2019-02-19T03:22:18.849Z,5.49
2019-02-19T03:22:50.273Z,5.38
2019-02-19T03:23:21.633Z,5.28
2019-02-19T03:23:52.951Z,5.17
2019-02-19T03:24:24.334Z,5.15
2019-02-19T03:24:55.684Z,5.21
2019-02-19T03:25:27.025Z,5.39
2019-02-19T03:25:58.473Z,5.50
2019-02-19T03:26:29.855Z,5.56
2019-02-19T03:27:01.201Z,5.55
2019-02-19T03:27:32.527Z,5.49
2019-02-19T03:28:03.938Z,5.38
2019-02-19T03:28:35.170Z,5.29
2019-02-19T03:29:06.467Z,5.18
2019-02-19T03:29:37.846Z,5.12
2019-02-19T03:30:09.459Z,5.22
2019-02-19T03:30:40.752Z,5.37
2019-02-19T03:31:12.059Z,5.50
2019-02-19T03:31:43.377Z,5.58
2019-02-19T03:32:14.746Z,5.56
2019-02-19T03:32:45.976Z,5.50
2019-02-19T03:33:17.285Z,5.39
2019-02-19T03:33:48.500Z,5.29
2019-02-19T03:34:19.857Z,5.17
2019-02-19T03:34:51.165Z,5.12
2019-02-19T03:35:22.546Z,5.22
2019-02-19T03:35:53.844Z,5.35
2019-02-19T03:36:25.205Z,5.52
2019-02-19T03:36:56.501Z,5.58
2019-02-19T03:37:27.885Z,5.56
2019-02-19T03:37:59.217Z,5.48
2019-02-19T03:38:31.525Z,5.38
2019-02-19T03:39:04.103Z,5.25
2019-02-19T03:39:35.383Z,5.12
2019-02-19T03:40:07.649Z,5.15
2019-02-19T03:40:39.278Z,5.27
2019-02-19T03:41:10.655Z,5.43
2019-02-19T03:41:41.903Z,5.70
2019-02-19T03:42:13.197Z,5.98
2019-02-19T03:42:44.592Z,6.24
2019-02-19T03:43:15.914Z,6.53
2019-02-19T03:43:47.153Z,6.80
2019-02-19T03:44:18.455Z,7.07
2019-02-19T03:44:49.728Z,7.30
2019-02-19T03:45:20.974Z,7.41
2019-02-19T03:45:52.375Z,7.44
2019-02-19T03:46:23.776Z,7.37
2019-02-19T03:46:55.026Z,7.27
2019-02-19T03:47:26.393Z,7.08
2019-02-19T03:47:57.725Z,6.92
2019-02-19T03:48:29.124Z,6.73
2019-02-19T03:49:00.468Z,6.55
2019-02-19T03:49:31.726Z,6.41
2019-02-19T03:50:04.520Z,6.24
2019-02-19T03:50:35.905Z,6.06
2019-02-19T03:51:07.212Z,5.89
2019-02-19T03:51:38.604Z,5.76
2019-02-19T03:52:10.072Z,5.58
2019-02-19T03:52:41.496Z,5.43
2019-02-19T03:53:12.821Z,5.32
2019-02-19T03:53:44.127Z,5.19
2019-02-19T03:54:15.431Z,5.14
2019-02-19T03:54:46.739Z,5.24
2019-02-19T03:55:18.144Z,5.41
2019-02-19T03:55:49.495Z,5.67
2019-02-19T03:56:20.830Z,5.94
2019-02-19T03:56:52.124Z,6.25
2019-02-19T03:57:23.460Z,6.56
2019-02-19T03:57:54.777Z,6.86
2019-02-19T03:58:26.193Z,7.11
2019-02-19T03:58:57.504Z,7.35
2019-02-19T03:59:28.843Z,7.46
2019-02-19T04:00:00.264Z,7.51
2019-02-19T04:00:31.566Z,7.42
2019-02-19T04:01:02.826Z,7.28
2019-02-19T04:01:34.247Z,7.14
2019-02-19T04:02:05.519Z,7.00
2019-02-19T04:02:36.894Z,6.80
2019-02-19T04:03:08.229Z,6.62
2019-02-19T04:03:39.590Z,6.44
2019-02-19T04:04:11.058Z,6.27
2019-02-19T04:04:42.357Z,6.06
2019-02-19T04:05:13.636Z,5.89
2019-02-19T04:05:44.926Z,5.69
2019-02-19T04:06:16.248Z,5.55
2019-02-19T04:06:47.602Z,5.38
2019-02-19T04:07:18.954Z,5.25
2019-02-19T04:07:50.256Z,5.11
2019-02-19T04:08:21.631Z,5.11
2019-02-19T04:08:53.116Z,5.22
2019-02-19T04:09:24.477Z,5.43
2019-02-19T04:09:55.929Z,5.72
2019-02-19T04:10:27.226Z,6.03
2019-02-19T04:10:58.495Z,6.31
2019-02-19T04:11:29.921Z,6.60
2019-02-19T04:12:01.225Z,6.90
2019-02-19T04:12:32.608Z,7.14
2019-02-19T04:13:04.914Z,7.28
2019-02-19T04:13:36.193Z,7.35
2019-02-19T04:14:07.402Z,7.28
2019-02-19T04:14:38.727Z,7.17
2019-02-19T04:15:10.049Z,7.04
2019-02-19T04:15:41.585Z,6.86
2019-02-19T04:16:21.162Z,6.71
2019-02-19T04:16:46.251Z,6.53
2019-02-19T04:17:17.604Z,6.38
2019-02-19T04:17:49.133Z,6.17
2019-02-19T04:18:20.545Z,6.01
2019-02-19T04:18:51.908Z,5.89
2019-02-19T04:19:23.346Z,5.70
2019-02-19T04:19:55.856Z,5.55
2019-02-19T04:20:27.277Z,5.41
2019-02-19T04:20:59.568Z,5.27
2019-02-19T04:21:30.976Z,5.17
2019-02-19T04:22:02.215Z,5.14
2019-02-19T04:22:33.651Z,5.25
2019-02-19T04:23:04.893Z,5.45
2019-02-19T04:23:36.357Z,5.65
2019-02-19T04:24:07.730Z,5.94
2019-02-19T04:24:39.110Z,6.22
2019-02-19T04:25:10.331Z,6.56
2019-02-19T04:25:41.665Z,6.80
2019-02-19T04:26:14.109Z,7.00
2019-02-19T04:26:45.571Z,7.06
2019-02-19T04:27:16.843Z,7.00
2019-02-19T04:27:48.283Z,6.92
2019-02-19T04:28:19.538Z,6.78
2019-02-19T04:28:50.920Z,6.64
2019-02-19T04:29:22.208Z,6.44
2019-02-19T04:29:53.607Z,6.27
2019-02-19T04:30:24.899Z,6.11
2019-02-19T04:30:56.293Z,5.93
2019-02-19T04:31:27.539Z,5.79
2019-02-19T04:31:59.968Z,5.59
2019-02-19T04:32:31.253Z,5.43
2019-02-19T04:33:02.647Z,5.22
2019-02-19T04:33:33.862Z,5.11
2019-02-19T04:34:05.259Z,5.08
2019-02-19T04:34:36.502Z,5.21
2019-02-19T04:35:07.829Z,5.35
2019-02-19T04:35:39.064Z,5.56
2019-02-19T04:36:10.579Z,5.87
2019-02-19T04:36:41.890Z,6.14
2019-02-19T04:37:13.222Z,6.44
2019-02-19T04:37:44.463Z,6.66
2019-02-19T04:38:15.905Z,6.92
2019-02-19T04:38:47.266Z,7.18
2019-02-19T04:39:18.634Z,7.37
2019-02-19T04:39:49.855Z,7.46
2019-02-19T04:40:21.228Z,7.44
2019-02-19T04:40:52.493Z,7.35
2019-02-19T04:41:23.923Z,7.18
2019-02-19T04:41:55.575Z,7.03
2019-02-19T04:42:26.938Z,6.83
2019-02-19T04:42:58.429Z,6.62
2019-02-19T04:43:29.865Z,6.41
2019-02-19T04:44:01.280Z,6.21
2019-02-19T04:44:32.689Z,6.00
2019-02-19T04:45:04.217Z,5.82
2019-02-19T04:45:35.582Z,5.65
2019-02-19T04:46:06.982Z,5.45
2019-02-19T04:46:38.311Z,5.27
2019-02-19T04:47:09.692Z,5.10
2019-02-19T04:47:41.126Z,5.10
2019-02-19T04:48:12.523Z,5.14
2019-02-19T04:48:43.855Z,5.32
2019-02-19T04:49:15.164Z,5.58
2019-02-19T04:49:46.483Z,5.86
2019-02-19T04:50:19.682Z,6.10
2019-02-19T04:50:51.024Z,6.44
2019-02-19T04:51:22.442Z,6.68
2019-02-19T04:51:53.794Z,6.93
2019-02-19T04:52:25.120Z,7.20
2019-02-19T04:52:56.326Z,7.41
2019-02-19T04:53:27.683Z,7.48
2019-02-19T04:53:58.919Z,7.52
2019-02-19T04:54:30.240Z,7.39
2019-02-19T04:55:01.609Z,7.25
2019-02-19T04:55:33.034Z,7.08
2019-02-19T04:56:04.294Z,6.89
2019-02-19T04:56:35.660Z,6.72
2019-02-19T04:57:07.016Z,6.52
2019-02-19T04:57:38.365Z,6.32
2019-02-19T04:58:09.712Z,6.13
2019-02-19T04:58:41.394Z,5.96
2019-02-19T04:59:12.893Z,5.76
2019-02-19T04:59:44.461Z,5.61
2019-02-19T05:00:15.861Z,5.42
2019-02-19T05:00:47.191Z,5.28
2019-02-19T05:01:18.537Z,5.14
2019-02-19T05:01:49.841Z,5.10
2019-02-19T05:02:21.233Z,5.19
2019-02-19T05:02:52.496Z,5.35
2019-02-19T05:03:23.802Z,5.62
2019-02-19T05:03:55.022Z,5.87
2019-02-19T05:04:26.443Z,6.18
2019-02-19T05:04:57.786Z,6.49
2019-02-19T05:05:29.206Z,6.79
2019-02-19T05:06:00.533Z,7.03
2019-02-19T05:06:31.894Z,7.30
2019-02-19T05:07:03.214Z,7.44
2019-02-19T05:07:34.636Z,7.44
2019-02-19T05:08:06.000Z,7.41
2019-02-19T05:08:37.351Z,7.28
2019-02-19T05:09:08.687Z,7.11
2019-02-19T05:09:40.075Z,6.96
2019-02-19T05:10:12.437Z,6.76
2019-02-19T05:10:43.774Z,6.56
2019-02-19T05:11:15.056Z,6.42
2019-02-19T05:11:46.300Z,6.21
2019-02-19T05:12:17.630Z,6.04
2019-02-19T05:12:48.889Z,5.87
2019-02-19T05:13:20.274Z,5.69
2019-02-19T05:13:51.553Z,5.55
2019-02-19T05:14:22.926Z,5.39
2019-02-19T05:14:54.237Z,5.24
2019-02-19T05:15:25.699Z,5.18
2019-02-19T05:15:57.073Z,5.15
2019-02-19T05:16:28.362Z,5.27
2019-02-19T05:16:59.668Z,5.48
2019-02-19T05:17:31.016Z,5.73
2019-02-19T05:18:02.255Z,6.00
2019-02-19T05:18:33.639Z,6.34
2019-02-19T05:19:04.895Z,6.65
2019-02-19T05:19:36.231Z,6.93
2019-02-19T05:20:08.317Z,7.18
2019-02-19T05:20:39.670Z,7.34
2019-02-19T05:21:10.922Z,7.37
2019-02-19T05:21:42.271Z,7.34
2019-02-19T05:22:13.745Z,7.24
2019-02-19T05:22:45.076Z,7.10
2019-02-19T05:23:16.320Z,6.93
2019-02-19T05:23:47.635Z,6.73
2019-02-19T05:24:19.055Z,6.57
2019-02-19T05:24:50.422Z,6.36
2019-02-19T05:25:21.689Z,6.22
2019-02-19T05:25:53.075Z,6.04
2019-02-19T05:26:24.392Z,5.85
2019-02-19T05:26:55.822Z,5.70
2019-02-19T05:27:27.254Z,5.53
2019-02-19T05:27:58.646Z,5.39
2019-02-19T05:28:30.065Z,5.25
2019-02-19T05:29:01.430Z,5.11
2019-02-19T05:29:32.777Z,5.14
2019-02-19T05:30:08.800Z,5.27
2019-02-19T05:30:40.193Z,5.50
2019-02-19T05:31:11.662Z,5.79
2019-02-19T05:31:43.217Z,6.06
2019-02-19T05:32:14.478Z,6.35
2019-02-19T05:32:45.841Z,6.65
2019-02-19T05:33:17.088Z,6.89
2019-02-19T05:33:48.383Z,7.14
2019-02-19T05:34:19.634Z,7.38
2019-02-19T05:34:51.975Z,7.46
2019-02-19T05:35:23.275Z,7.46
2019-02-19T05:35:54.635Z,7.39
2019-02-19T05:36:26.042Z,7.28
2019-02-19T05:36:57.491Z,7.14
2019-02-19T05:37:28.952Z,6.94
2019-02-19T05:38:00.509Z,6.78
2019-02-19T05:38:31.912Z,6.59
2019-02-19T05:39:04.334Z,6.36
2019-02-19T05:39:35.728Z,6.20
2019-02-19T05:40:08.220Z,6.06
2019-02-19T05:40:39.602Z,5.87
2019-02-19T05:41:11.254Z,5.69
2019-02-19T05:41:42.648Z,5.55
2019-02-19T05:42:13.976Z,5.42
2019-02-19T05:42:45.378Z,5.22
2019-02-19T05:43:16.724Z,5.15
2019-02-19T05:43:48.113Z,5.12
2019-02-19T05:44:19.383Z,5.28
2019-02-19T05:44:50.742Z,5.48
2019-02-19T05:45:22.078Z,5.75
2019-02-19T05:45:53.492Z,6.04
2019-02-19T05:46:24.864Z,6.34
2019-02-19T05:46:56.252Z,6.60
2019-02-19T05:47:27.451Z,6.89
2019-02-19T05:47:58.772Z,7.15
2019-02-19T05:48:30.024Z,7.39
2019-02-19T05:49:01.387Z,7.52
2019-02-19T05:49:32.683Z,7.52
2019-02-19T05:50:07.100Z,7.45
2019-02-19T05:50:38.352Z,7.30
2019-02-19T05:51:09.692Z,7.13
2019-02-19T05:51:40.971Z,6.96
2019-02-19T05:52:12.297Z,6.75
2019-02-19T05:52:43.792Z,6.56
2019-02-19T05:53:15.245Z,6.38
2019-02-19T05:53:46.854Z,6.18
2019-02-19T05:54:18.292Z,6.01
2019-02-19T05:54:49.710Z,5.85
2019-02-19T05:55:21.148Z,5.66
2019-02-19T05:55:52.532Z,5.50
2019-02-19T05:56:24.038Z,5.35
2019-02-19T05:56:55.342Z,5.19
2019-02-19T05:57:26.592Z,5.11
2019-02-19T05:57:58.023Z,5.15
2019-02-19T05:58:29.343Z,5.31
2019-02-19T05:59:00.666Z,5.50
2019-02-19T05:59:32.600Z,5.83
2019-02-19T06:00:09.554Z,6.10
2019-02-19T06:00:40.867Z,6.46
2019-02-19T06:01:12.229Z,6.72
2019-02-19T06:01:43.865Z,7.02
2019-02-19T06:02:16.600Z,7.25
2019-02-19T06:02:47.928Z,7.39
2019-02-19T06:03:19.322Z,7.42
2019-02-19T06:03:50.673Z,7.38
2019-02-19T06:04:21.924Z,7.24
2019-02-19T06:04:53.311Z,7.08
2019-02-19T06:05:24.575Z,6.93
2019-02-19T06:05:55.877Z,6.75
2019-02-19T06:06:27.150Z,6.57
2019-02-19T06:06:58.511Z,6.39
2019-02-19T06:07:29.741Z,6.24
2019-02-19T06:08:01.042Z,6.06
2019-02-19T06:08:32.493Z,5.90
2019-02-19T06:09:04.489Z,5.76
2019-02-19T06:09:35.808Z,5.55
2019-02-19T06:10:10.830Z,5.45
2019-02-19T06:10:44.046Z,5.25
2019-02-19T06:11:15.444Z,5.15
2019-02-19T06:11:46.854Z,5.15
2019-02-19T06:12:18.106Z,5.28
2019-02-19T06:12:50.544Z,5.50
2019-02-19T06:13:21.720Z,5.73
2019-02-19T06:13:53.040Z,6.07
2019-02-19T06:14:24.402Z,6.34
2019-02-19T06:14:55.742Z,6.64
2019-02-19T06:15:27.027Z,6.94
2019-02-19T06:15:59.378Z,7.21
2019-02-19T06:16:30.583Z,7.35
2019-02-19T06:17:02.706Z,7.39
2019-02-19T06:17:34.010Z,7.31
2019-02-19T06:18:05.444Z,7.20
2019-02-19T06:18:36.744Z,7.07
2019-02-19T06:19:08.162Z,6.87
2019-02-19T06:19:39.407Z,6.73
2019-02-19T06:20:10.779Z,6.51
2019-02-19T06:20:42.045Z,6.35
2019-02-19T06:21:13.631Z,6.18
2019-02-19T06:21:45.009Z,5.97
2019-02-19T06:22:16.459Z,5.82
2019-02-19T06:22:47.918Z,5.65
2019-02-19T06:23:19.376Z,5.50
2019-02-19T06:23:52.677Z,5.34
2019-02-19T06:24:24.046Z,5.15
2019-02-19T06:24:55.403Z,5.12
2019-02-19T06:25:27.832Z,5.18
2019-02-19T06:25:59.352Z,5.37
2019-02-19T06:26:30.808Z,5.62
2019-02-19T06:27:02.277Z,5.92
2019-02-19T06:27:33.526Z,6.22
2019-02-19T06:28:05.667Z,6.53
2019-02-19T06:28:36.959Z,6.85
2019-02-19T06:29:08.294Z,7.10
2019-02-19T06:29:39.568Z,7.37
2019-02-19T06:30:12.092Z,7.51
2019-02-19T06:30:43.319Z,7.54
2019-02-19T06:31:14.698Z,7.48
2019-02-19T06:31:45.944Z,7.35
2019-02-19T06:32:17.254Z,7.23
2019-02-19T06:32:50.449Z,7.04
2019-02-19T06:33:21.741Z,6.87
2019-02-19T06:33:53.131Z,6.69
2019-02-19T06:34:24.403Z,6.53
2019-02-19T06:34:55.762Z,6.38
2019-02-19T06:35:27.027Z,6.20
2019-02-19T06:35:58.301Z,6.04
2019-02-19T06:36:29.718Z,5.90
2019-02-19T06:37:00.961Z,5.76
2019-02-19T06:37:32.284Z,5.59
2019-02-19T06:38:03.584Z,5.46
2019-02-19T06:38:34.908Z,5.29
2019-02-19T06:39:06.207Z,5.18
2019-02-19T06:39:37.595Z,5.14
2019-02-19T06:40:23.591Z,5.21
2019-02-19T06:40:54.905Z,5.48
2019-02-19T06:41:26.199Z,5.76
2019-02-19T06:41:57.576Z,6.04
2019-02-19T06:42:28.982Z,6.34
2019-02-19T06:43:00.184Z,6.66
2019-02-19T06:43:31.549Z,6.93
2019-02-19T06:44:02.929Z,7.20
2019-02-19T06:44:34.305Z,7.44
2019-02-19T06:45:05.604Z,7.58
2019-02-19T06:45:36.877Z,7.56
2019-02-19T06:46:08.114Z,7.51
2019-02-19T06:46:39.452Z,7.38
2019-02-19T06:47:10.690Z,7.20
2019-02-19T06:47:42.116Z,7.07
2019-02-19T06:48:13.356Z,6.87
2019-02-19T06:48:44.716Z,6.68
2019-02-19T06:49:15.990Z,6.51
2019-02-19T06:49:47.346Z,6.34
2019-02-19T06:50:18.695Z,6.17
2019-02-19T06:50:50.052Z,5.98
2019-02-19T06:51:21.362Z,5.83
2019-02-19T06:51:52.744Z,5.70
2019-02-19T06:52:24.121Z,5.55
2019-02-19T06:52:55.477Z,5.42
2019-02-19T06:53:26.841Z,5.29
2019-02-19T06:53:58.687Z,5.18
2019-02-19T06:54:29.997Z,5.14
2019-02-19T06:55:01.334Z,5.22
2019-02-19T06:55:32.659Z,5.45
2019-02-19T06:56:04.017Z,5.69
2019-02-19T06:56:35.346Z,5.98
2019-02-19T06:57:06.701Z,6.31
2019-02-19T06:57:38.033Z,6.64
2019-02-19T06:58:09.295Z,6.96
2019-02-19T06:58:40.778Z,7.21
2019-02-19T06:59:12.195Z,7.49
2019-02-19T06:59:43.534Z,7.65
2019-02-19T07:00:14.898Z,7.67
2019-02-19T07:00:46.176Z,7.63
2019-02-19T07:01:20.768Z,7.51
2019-02-19T07:01:57.038Z,7.37